Time;durP1;ratioP1;P1;durP2;ratioP2;P2;SDS_P1;SDS_P2;PMS_P1;PMS_P2;Temp;Humidity;BMP_temperature;BMP_pressure;BME280_temperature;BME280_humidity;BME280_pressure;Samples;Min_cycle;Max_cycle;Signal;HPM_P1;HPM_P2
2023/09/18 00:00:51;;;;;;;9.93;6.10;;;;;;;;;;5025622;28;20046;-89
2023/09/18 00:03:20;;;;;;;7.97;7.18;;;;;;;;;;5049232;28;20061;-89
2023/09/18 00:05:48;;;;;;;9.65;6.03;;;;;;;;;;5036844;28;20052;-89
2023/09/18 00:08:16;;;;;;;6.22;5.45;;;;;;;;;;5054232;28;20045;-88
2023/09/18 00:10:44;;;;;;;7.03;6.32;;;;;;;;;;5037158;28;20406;-88
2023/09/18 00:13:11;;;;;;;6.28;5.80;;;;;;;;;;5039129;28;20048;-89
2023/09/18 00:15:40;;;;;;;6.68;5.93;;;;;;;;;;5053850;28;20040;-88
2023/09/18 00:18:08;;;;;;;7.22;6.63;;;;;;;;;;5056596;28;20037;-88
2023/09/18 00:20:35;;;;;;;7.95;6.60;;;;;;;;;;5053720;28;20053;-89
2023/09/18 00:23:02;;;;;;;7.15;6.45;;;;;;;;;;5033134;28;20068;-89
2023/09/18 00:25:30;;;;;;;7.43;6.63;;;;;;;;;;5050214;28;20053;-88
2023/09/18 00:27:58;;;;;;;8.57;6.70;;;;;;;;;;5036511;28;20052;-89
2023/09/18 00:30:25;;;;;;;7.20;6.20;;;;;;;;;;5036246;28;20622;-89
2023/09/18 00:32:52;;;;;;;7.18;6.32;;;;;;;;;;5036328;28;20481;-89
2023/09/18 00:35:20;;;;;;;6.78;6.18;;;;;;;;;;5053878;28;20558;-89
2023/09/18 00:37:47;;;;;;;6.78;6.03;;;;;;;;;;5036016;28;20048;-88
2023/09/18 00:40:14;;;;;;;6.50;6.00;;;;;;;;;;5054150;28;20051;-89
2023/09/18 00:42:42;;;;;;;7.30;6.70;;;;;;;;;;5036059;28;20045;-89
2023/09/18 00:45:09;;;;;;;7.18;6.13;;;;;;;;;;5036190;28;20571;-89
2023/09/18 00:47:37;;;;;;;7.35;6.65;;;;;;;;;;5036229;28;20473;-89
2023/09/18 00:50:05;;;;;;;8.82;7.20;;;;;;;;;;5036289;28;20056;-88
2023/09/18 00:52:33;;;;;;;7.30;6.60;;;;;;;;;;5053755;28;20049;-88
2023/09/18 00:55:01;;;;;;;6.85;6.13;;;;;;;;;;5035973;28;20467;-89
2023/09/18 00:57:29;;;;;;;9.48;6.57;;;;;;;;;;5053409;28;20053;-88
2023/09/18 00:59:56;;;;;;;6.93;6.32;;;;;;;;;;5053470;28;20501;-88
2023/09/18 01:02:23;;;;;;;6.32;5.65;;;;;;;;;;5053491;28;20099;-89
2023/09/18 01:04:51;;;;;;;7.50;6.18;;;;;;;;;;5035819;28;20061;-88
2023/09/18 01:07:18;;;;;;;6.47;5.95;;;;;;;;;;5034970;28;20081;-89
2023/09/18 01:09:46;;;;;;;7.65;6.07;;;;;;;;;;5053444;28;20053;-89
2023/09/18 01:12:16;;;;;;;8.02;6.18;;;;;;;;;;5032462;28;20137;-89
2023/09/18 01:14:50;;;;;;;6.85;6.18;;;;;;;;;;5051799;28;20461;-89
2023/09/18 01:17:17;;;;;;;6.88;6.38;;;;;;;;;;5053316;28;20053;-91
2023/09/18 01:19:46;;;;;;;7.00;6.40;;;;;;;;;;5053470;28;20060;-89
2023/09/18 01:22:21;;;;;;;6.90;5.80;;;;;;;;;;5058349;28;20053;-89
2023/09/18 01:24:49;;;;;;;6.55;5.90;;;;;;;;;;5057733;28;20139;-88
2023/09/18 01:27:17;;;;;;;8.40;6.00;;;;;;;;;;5038855;28;20107;-88
2023/09/18 01:29:45;;;;;;;6.50;6.00;;;;;;;;;;5040774;28;20075;-89
2023/09/18 01:32:12;;;;;;;9.70;6.03;;;;;;;;;;5043013;28;20071;-88
2023/09/18 01:34:47;;;;;;;7.70;6.10;;;;;;;;;;5046938;28;20109;-88
2023/09/18 01:37:17;;;;;;;7.60;7.00;;;;;;;;;;5058842;28;20084;-89
2023/09/18 01:39:45;;;;;;;8.30;6.35;;;;;;;;;;5038847;28;20065;-89
2023/09/18 01:42:12;;;;;;;8.50;7.00;;;;;;;;;;5039419;28;20049;-88
2023/09/18 01:44:40;;;;;;;7.13;6.07;;;;;;;;;;5057123;28;20409;-89
2023/09/18 01:47:08;;;;;;;11.20;6.57;;;;;;;;;;5056956;28;20045;-88
2023/09/18 01:49:36;;;;;;;7.30;6.47;;;;;;;;;;5056814;28;20092;-89
2023/09/18 01:52:04;;;;;;;7.00;6.30;;;;;;;;;;5039283;28;20045;-89
2023/09/18 01:54:32;;;;;;;8.70;5.90;;;;;;;;;;5039080;28;20087;-89
2023/09/18 01:57:00;;;;;;;6.55;6.05;;;;;;;;;;5035789;28;20595;-89
2023/09/18 01:59:27;;;;;;;6.93;6.35;;;;;;;;;;5053642;28;20049;-91
2023/09/18 02:01:55;;;;;;;10.50;6.10;;;;;;;;;;5035455;28;20054;-89
2023/09/18 02:04:23;;;;;;;8.52;6.80;;;;;;;;;;5052679;28;20048;-91
2023/09/18 02:07:10;;;;;;;7.85;7.00;;;;;;;;;;5056100;28;20397;-90
2023/09/18 02:09:38;;;;;;;7.68;6.97;;;;;;;;;;5056285;28;20045;-91
2023/09/18 02:12:06;;;;;;;7.57;6.75;;;;;;;;;;5035237;28;20417;-90
2023/09/18 02:14:33;;;;;;;8.63;6.22;;;;;;;;;;5053015;28;20448;-91
2023/09/18 02:17:01;;;;;;;7.15;6.53;;;;;;;;;;5037372;28;20075;-91
2023/09/18 02:19:28;;;;;;;7.22;6.53;;;;;;;;;;5038377;28;20080;-91
2023/09/18 02:21:59;;;;;;;8.82;6.85;;;;;;;;;;5038068;28;20053;-90
2023/09/18 02:24:26;;;;;;;6.70;6.10;;;;;;;;;;5038309;28;20451;-91
2023/09/18 02:26:53;;;;;;;10.68;7.13;;;;;;;;;;5038667;28;20512;-91
2023/09/18 02:29:20;;;;;;;8.35;6.78;;;;;;;;;;5038390;28;20075;-90
2023/09/18 02:31:48;;;;;;;7.07;6.30;;;;;;;;;;5034999;28;20076;-91
2023/09/18 02:34:15;;;;;;;7.47;6.70;;;;;;;;;;5051325;28;20056;-91
2023/09/18 02:36:42;;;;;;;7.07;6.38;;;;;;;;;;5038220;28;20139;-91
2023/09/18 02:39:10;;;;;;;7.72;6.90;;;;;;;;;;5054714;28;20095;-91
2023/09/18 02:41:37;;;;;;;7.70;6.93;;;;;;;;;;5055256;28;20409;-90
2023/09/18 02:44:05;;;;;;;7.57;6.78;;;;;;;;;;5055712;28;20056;-90
2023/09/18 02:46:32;;;;;;;6.75;6.15;;;;;;;;;;5055467;28;20059;-91
2023/09/18 02:48:59;;;;;;;6.97;6.32;;;;;;;;;;5042895;28;20094;-89
2023/09/18 02:51:26;;;;;;;7.13;6.55;;;;;;;;;;5079577;28;20032;-90
2023/09/18 02:53:54;;;;;;;7.95;7.25;;;;;;;;;;5046423;28;20044;-90
2023/09/18 02:56:21;;;;;;;7.85;7.00;;;;;;;;;;5037870;28;20130;-91
2023/09/18 02:58:48;;;;;;;7.57;6.90;;;;;;;;;;5037767;28;20053;-91
2023/09/18 03:01:17;;;;;;;8.02;7.22;;;;;;;;;;5037715;28;20052;-90
2023/09/18 03:03:44;;;;;;;9.98;6.93;;;;;;;;;;5037968;28;20059;-90
2023/09/18 03:06:13;;;;;;;7.00;6.28;;;;;;;;;;5037659;28;20060;-90
2023/09/18 03:08:40;;;;;;;7.90;6.82;;;;;;;;;;5037538;28;20473;-90
2023/09/18 03:11:14;;;;;;;7.18;6.47;;;;;;;;;;5055011;28;20044;-90
2023/09/18 03:13:46;;;;;;;8.57;6.28;;;;;;;;;;5037919;28;20578;-89
2023/09/18 03:16:15;;;;;;;6.88;6.38;;;;;;;;;;5037833;28;20049;-90
2023/09/18 03:18:43;;;;;;;6.75;6.18;;;;;;;;;;5021487;28;20098;-90
2023/09/18 03:21:11;;;;;;;6.80;6.20;;;;;;;;;;5037227;28;20512;-90
2023/09/18 03:23:38;;;;;;;8.10;7.40;;;;;;;;;;5035936;28;20049;-91
2023/09/18 03:26:05;;;;;;;8.05;7.22;;;;;;;;;;5037556;28;20049;-90
2023/09/18 03:28:33;;;;;;;9.10;7.57;;;;;;;;;;5034887;28;20049;-90
2023/09/18 03:31:00;;;;;;;6.70;6.13;;;;;;;;;;5038518;28;20473;-90
2023/09/18 03:33:27;;;;;;;11.57;6.90;;;;;;;;;;5037768;28;20072;-91
2023/09/18 03:35:56;;;;;;;8.50;6.43;;;;;;;;;;5033741;28;20046;-90
2023/09/18 03:38:24;;;;;;;7.32;6.63;;;;;;;;;;5051091;28;20053;-90
2023/09/18 03:40:52;;;;;;;8.38;6.80;;;;;;;;;;5046784;28;20049;-90
2023/09/18 03:43:19;;;;;;;6.90;6.22;;;;;;;;;;5036928;28;20559;-90
2023/09/18 03:45:48;;;;;;;8.55;6.43;;;;;;;;;;5036889;28;20098;-91
2023/09/18 03:48:15;;;;;;;6.82;6.00;;;;;;;;;;5036872;28;20593;-90
2023/09/18 03:50:42;;;;;;;7.43;6.72;;;;;;;;;;5054435;28;20501;-90
2023/09/18 03:53:10;;;;;;;10.32;6.47;;;;;;;;;;5037146;28;20075;-90
2023/09/18 03:55:38;;;;;;;11.00;6.25;;;;;;;;;;5036708;28;20041;-91
2023/09/18 03:58:06;;;;;;;8.77;6.47;;;;;;;;;;5054233;28;20045;-90
2023/09/18 04:00:33;;;;;;;7.68;6.72;;;;;;;;;;5036404;28;20049;-90
2023/09/18 04:03:00;;;;;;;7.28;5.70;;;;;;;;;;5054372;28;20045;-89
2023/09/18 04:05:28;;;;;;;9.40;6.47;;;;;;;;;;5054399;28;20053;-91
2023/09/18 04:07:55;;;;;;;7.28;6.57;;;;;;;;;;5073815;28;20075;-90
2023/09/18 04:10:23;;;;;;;7.40;6.57;;;;;;;;;;5049193;28;20478;-90
2023/09/18 04:12:51;;;;;;;7.25;6.65;;;;;;;;;;5044967;28;20048;-90
2023/09/18 04:15:19;;;;;;;8.07;7.28;;;;;;;;;;5053847;28;20144;-89
2023/09/18 04:17:47;;;;;;;8.23;7.30;;;;;;;;;;5036643;28;20049;-90
2023/09/18 04:20:15;;;;;;;7.95;7.10;;;;;;;;;;5036197;28;20516;-90
2023/09/18 04:22:44;;;;;;;9.75;6.90;;;;;;;;;;5036089;28;20061;-90
2023/09/18 04:25:12;;;;;;;8.10;6.90;;;;;;;;;;5053899;28;20049;-90
2023/09/18 04:27:39;;;;;;;8.05;7.03;;;;;;;;;;5053548;28;20049;-89
2023/09/18 04:30:08;;;;;;;7.75;7.05;;;;;;;;;;5036329;28;20114;-90
2023/09/18 04:32:40;;;;;;;9.75;7.63;;;;;;;;;;5053836;28;20562;-90
2023/09/18 04:35:08;;;;;;;8.15;6.78;;;;;;;;;;5036068;28;20040;-90
2023/09/18 04:37:37;;;;;;;15.07;7.55;;;;;;;;;;5053634;28;20044;-90
2023/09/18 04:40:09;;;;;;;13.10;7.25;;;;;;;;;;5035661;28;20048;-90
2023/09/18 04:42:37;;;;;;;18.60;8.10;;;;;;;;;;5036270;28;20051;-90
2023/09/18 04:45:05;;;;;;;8.13;7.38;;;;;;;;;;5053901;28;20049;-90
2023/09/18 04:47:32;;;;;;;12.65;8.40;;;;;;;;;;5035580;28;20053;-91
2023/09/18 04:50:00;;;;;;;17.50;8.60;;;;;;;;;;5035963;28;20106;-89
2023/09/18 04:52:27;;;;;;;15.32;8.60;;;;;;;;;;5035757;28;20061;-90
2023/09/18 04:54:55;;;;;;;12.35;8.80;;;;;;;;;;5053107;28;20045;-90
2023/09/18 04:57:22;;;;;;;15.40;8.15;;;;;;;;;;5032344;28;20417;-89
2023/09/18 04:59:50;;;;;;;14.20;8.18;;;;;;;;;;5043742;28;20045;-87
2023/09/18 05:02:31;;;;;;;8.63;7.50;;;;;;;;;;5052580;28;20052;-90
2023/09/18 05:04:59;;;;;;;10.00;7.40;;;;;;;;;;5053487;28;20387;-91
2023/09/18 05:07:26;;;;;;;10.02;7.55;;;;;;;;;;5035450;28;20124;-90
2023/09/18 05:09:53;;;;;;;9.88;7.57;;;;;;;;;;5036452;28;20487;-90
2023/09/18 05:12:22;;;;;;;9.38;7.03;;;;;;;;;;5052483;28;20106;-90
2023/09/18 05:14:50;;;;;;;10.43;7.00;;;;;;;;;;5035433;28;20056;-90
2023/09/18 05:17:18;;;;;;;14.70;9.10;;;;;;;;;;5052791;28;20045;-89
2023/09/18 05:19:45;;;;;;;13.75;10.30;;;;;;;;;;5035431;28;20053;-89
2023/09/18 05:22:12;;;;;;;26.77;10.68;;;;;;;;;;5035315;28;20053;-89
2023/09/18 05:24:40;;;;;;;14.10;9.43;;;;;;;;;;5049645;28;20032;-90
2023/09/18 05:27:07;;;;;;;15.05;9.45;;;;;;;;;;5053263;28;20045;-90
2023/09/18 05:29:37;;;;;;;17.17;10.50;;;;;;;;;;5034958;28;20107;-90
2023/09/18 05:32:04;;;;;;;13.65;9.50;;;;;;;;;;5033156;28;20045;-90
2023/09/18 05:34:32;;;;;;;18.50;10.70;;;;;;;;;;5026719;28;20477;-90
2023/09/18 05:36:59;;;;;;;9.80;8.68;;;;;;;;;;5030306;28;20144;-90
2023/09/18 05:39:27;;;;;;;12.05;8.52;;;;;;;;;;5043671;28;20135;-90
2023/09/18 05:41:54;;;;;;;22.40;10.18;;;;;;;;;;5028902;28;20072;-90
2023/09/18 05:44:21;;;;;;;17.90;11.63;;;;;;;;;;5044160;28;20077;-90
2023/09/18 05:46:48;;;;;;;21.88;12.27;;;;;;;;;;5034991;28;20049;-90
2023/09/18 05:49:16;;;;;;;16.48;10.90;;;;;;;;;;5052741;28;20110;-90
2023/09/18 05:51:43;;;;;;;19.70;11.10;;;;;;;;;;5035226;28;20155;-90
2023/09/18 05:54:10;;;;;;;10.40;7.63;;;;;;;;;;5035383;28;20049;-90
2023/09/18 05:56:38;;;;;;;9.90;7.50;;;;;;;;;;5052849;28;20045;-90
2023/09/18 05:59:05;;;;;;;15.88;14.27;;;;;;;;;;5035104;28;20076;-90
2023/09/18 06:01:33;;;;;;;14.25;12.75;;;;;;;;;;5033033;28;20045;-91
2023/09/18 06:04:03;;;;;;;4.90;4.50;;;;;;;;;;5035431;28;20504;-91
2023/09/18 06:06:31;;;;;;;6.07;4.75;;;;;;;;;;5035065;28;20048;-92
2023/09/18 06:08:58;;;;;;;11.75;4.80;;;;;;;;;;5035061;28;20045;-90
2023/09/18 06:11:27;;;;;;;6.55;5.90;;;;;;;;;;5032163;28;20077;-93
2023/09/18 06:13:54;;;;;;;4.60;3.88;;;;;;;;;;5036245;28;20121;-90
2023/09/18 06:16:22;;;;;;;4.22;3.92;;;;;;;;;;5055964;28;20130;-90
2023/09/18 06:18:49;;;;;;;2.92;2.70;;;;;;;;;;5048263;28;20044;-90
2023/09/18 06:21:17;;;;;;;2.90;2.80;;;;;;;;;;5038940;28;20140;-92
2023/09/18 06:23:44;;;;;;;3.17;2.97;;;;;;;;;;5039147;28;20625;-94
2023/09/18 06:26:12;;;;;;;2.47;2.38;;;;;;;;;;5038993;28;20053;-95
2023/09/18 06:28:39;;;;;;;2.45;2.28;;;;;;;;;;5038427;28;20493;-91
2023/09/18 06:31:06;;;;;;;2.42;2.30;;;;;;;;;;5056565;28;20048;-88
2023/09/18 06:33:34;;;;;;;2.63;2.45;;;;;;;;;;5038641;28;20048;-89
2023/09/18 06:36:01;;;;;;;3.25;1.83;;;;;;;;;;5056818;28;20088;-90
2023/09/18 06:38:29;;;;;;;2.35;2.08;;;;;;;;;;5039787;28;20053;-94
2023/09/18 06:40:56;;;;;;;2.45;2.10;;;;;;;;;;5039530;28;20053;-89
2023/09/18 06:43:24;;;;;;;2.58;2.42;;;;;;;;;;5079169;28;20033;-87
2023/09/18 06:45:57;;;;;;;2.50;2.30;;;;;;;;;;5057991;28;20178;-91
2023/09/18 06:48:24;;;;;;;;;;;;;;;;;;5035560;28;20091;-91
2023/09/18 06:50:54;;;;;;;2.08;1.98;;;;;;;;;;5048105;28;19929;-93
2023/09/18 06:53:21;;;;;;;2.78;2.47;;;;;;;;;;5038518;28;20056;-87
2023/09/18 06:55:51;;;;;;;2.17;1.90;;;;;;;;;;5038370;28;20044;-91
2023/09/18 06:58:18;;;;;;;8.10;2.63;;;;;;;;;;5031402;28;20422;-87
2023/09/18 07:00:46;;;;;;;2.00;1.90;;;;;;;;;;5039428;28;20048;-86
2023/09/18 07:03:13;;;;;;;2.28;2.17;;;;;;;;;;5039745;28;20049;-88
2023/09/18 07:05:42;;;;;;;2.10;2.00;;;;;;;;;;5038935;28;20136;-86
2023/09/18 07:08:11;;;;;;;2.38;2.15;;;;;;;;;;5034662;28;20049;-88
2023/09/18 07:10:40;;;;;;;2.30;2.20;;;;;;;;;;5038564;28;20092;-91
2023/09/18 07:13:07;;;;;;;2.30;2.20;;;;;;;;;;5037805;28;20486;-88
2023/09/18 07:15:34;;;;;;;2.22;2.03;;;;;;;;;;5037799;28;20045;-87
2023/09/18 07:18:01;;;;;;;2.20;2.03;;;;;;;;;;5037795;28;20053;-86
2023/09/18 07:20:30;;;;;;;2.53;2.40;;;;;;;;;;5037366;28;20159;-91
2023/09/18 07:22:57;;;;;;;3.28;2.30;;;;;;;;;;5034288;28;20136;-87
2023/09/18 07:25:24;;;;;;;2.13;1.95;;;;;;;;;;5049794;28;20076;-86
2023/09/18 07:27:51;;;;;;;2.58;2.38;;;;;;;;;;5037940;28;20073;-90
2023/09/18 07:30:21;;;;;;;2.50;2.30;;;;;;;;;;5037630;28;20045;-87
2023/09/18 07:32:49;;;;;;;2.30;2.10;;;;;;;;;;5038022;28;20079;-91
2023/09/18 07:35:16;;;;;;;2.53;2.33;;;;;;;;;;5037878;28;20065;-90
2023/09/18 07:37:45;;;;;;;2.45;2.20;;;;;;;;;;5037158;28;20052;-87
2023/09/18 07:40:15;;;;;;;2.58;2.38;;;;;;;;;;5037570;28;20080;-86
2023/09/18 07:42:49;;;;;;;2.25;2.15;;;;;;;;;;5037793;28;20460;-91
2023/09/18 07:45:17;;;;;;;2.40;2.30;;;;;;;;;;5034986;28;20059;-86
2023/09/18 07:47:44;;;;;;;3.03;2.35;;;;;;;;;;5053343;28;20471;-88
2023/09/18 07:50:13;;;;;;;2.40;2.20;;;;;;;;;;5036978;28;20077;-86
2023/09/18 07:52:41;;;;;;;2.80;2.63;;;;;;;;;;5037408;28;20052;-89
2023/09/18 07:55:09;;;;;;;2.47;2.28;;;;;;;;;;5033829;28;20482;-87
2023/09/18 07:57:37;;;;;;;3.00;2.75;;;;;;;;;;5051948;28;20652;-88
2023/09/18 08:00:12;;;;;;;3.28;2.30;;;;;;;;;;5050486;28;20041;-87
2023/09/18 08:02:40;;;;;;;2.80;2.60;;;;;;;;;;5056010;28;20073;-87
2023/09/18 08:05:08;;;;;;;2.80;2.60;;;;;;;;;;5036618;28;20516;-87
2023/09/18 08:07:36;;;;;;;2.88;2.67;;;;;;;;;;5036925;28;20136;-87
2023/09/18 08:10:06;;;;;;;2.78;2.58;;;;;;;;;;5036497;28;20083;-87
2023/09/18 08:12:34;;;;;;;3.00;2.38;;;;;;;;;;5036913;28;20485;-88
2023/09/18 08:15:02;;;;;;;4.95;2.50;;;;;;;;;;5036527;28;20049;-88
2023/09/18 08:17:30;;;;;;;4.75;2.45;;;;;;;;;;5035040;28;20118;-87
2023/09/18 08:19:58;;;;;;;5.30;2.75;;;;;;;;;;5035827;28;20045;-89
2023/09/18 08:22:25;;;;;;;4.40;2.47;;;;;;;;;;5036272;28;20099;-87
2023/09/18 08:24:53;;;;;;;2.70;2.50;;;;;;;;;;5036325;28;20509;-86
2023/09/18 08:27:20;;;;;;;3.05;2.38;;;;;;;;;;5036359;28;20049;-88
2023/09/18 08:29:47;;;;;;;2.05;1.95;;;;;;;;;;5036206;28;20077;-87
2023/09/18 08:32:15;;;;;;;2.45;2.10;;;;;;;;;;5036225;28;20507;-87
2023/09/18 08:34:42;;;;;;;4.57;2.35;;;;;;;;;;5035966;28;20060;-87
2023/09/18 08:37:09;;;;;;;2.10;2.00;;;;;;;;;;5032013;28;20049;-88
2023/09/18 08:39:37;;;;;;;3.45;2.70;;;;;;;;;;5051471;28;20060;-87
2023/09/18 08:42:05;;;;;;;2.30;2.20;;;;;;;;;;5036058;28;20049;-87
2023/09/18 08:44:33;;;;;;;2.38;2.17;;;;;;;;;;5033795;28;20072;-87
2023/09/18 08:47:01;;;;;;;2.75;2.55;;;;;;;;;;5036405;28;20527;-87
2023/09/18 08:49:29;;;;;;;3.55;2.30;;;;;;;;;;5036067;28;20107;-87
2023/09/18 08:51:57;;;;;;;3.55;2.75;;;;;;;;;;5036290;28;20090;-87
2023/09/18 08:54:25;;;;;;;3.90;2.20;;;;;;;;;;5036326;28;20075;-87
2023/09/18 08:56:52;;;;;;;4.80;2.60;;;;;;;;;;5036015;28;20074;-88
2023/09/18 08:59:21;;;;;;;5.65;2.72;;;;;;;;;;5035771;28;20045;-86
2023/09/18 09:01:49;;;;;;;6.75;2.22;;;;;;;;;;5036190;28;20045;-87
2023/09/18 09:04:16;;;;;;;3.25;2.20;;;;;;;;;;5035977;28;20049;-87
2023/09/18 09:06:43;;;;;;;3.95;3.58;;;;;;;;;;5036098;28;20079;-87
2023/09/18 09:09:12;;;;;;;6.15;3.00;;;;;;;;;;5035647;28;20073;-88
2023/09/18 09:11:40;;;;;;;5.97;2.35;;;;;;;;;;5034775;28;20073;-87
2023/09/18 09:14:19;;;;;;;5.00;2.40;;;;;;;;;;5036044;28;20049;-88
2023/09/18 09:16:50;;;;;;;4.18;2.60;;;;;;;;;;5044858;28;20097;-86
2023/09/18 09:19:30;;;;;;;7.78;2.30;;;;;;;;;;5060430;28;20032;-87
2023/09/18 09:21:58;;;;;;;2.25;2.05;;;;;;;;;;5052411;28;20052;-87
2023/09/18 09:24:42;;;;;;;3.65;2.25;;;;;;;;;;5034870;28;20099;-87
2023/09/18 09:27:10;;;;;;;3.28;1.77;;;;;;;;;;5036851;28;20079;-90
2023/09/18 09:29:38;;;;;;;7.82;2.72;;;;;;;;;;5053950;28;20053;-89
2023/09/18 09:32:16;;;;;;;4.57;2.30;;;;;;;;;;5036063;28;20045;-83
2023/09/18 09:34:46;;;;;;;8.23;2.58;;;;;;;;;;5036731;28;20111;-87
2023/09/18 09:37:13;;;;;;;6.38;2.42;;;;;;;;;;5035716;28;20083;-89
2023/09/18 09:39:48;;;;;;;5.95;2.28;;;;;;;;;;5031767;28;20061;-86
2023/09/18 09:42:18;;;;;;;8.00;2.10;;;;;;;;;;5032651;28;20076;-88
2023/09/18 09:44:45;;;;;;;9.73;2.42;;;;;;;;;;5032565;28;20038;-90
2023/09/18 09:47:14;;;;;;;8.88;2.47;;;;;;;;;;5028990;28;20054;-91
2023/09/18 09:49:49;;;;;;;4.30;2.05;;;;;;;;;;5049741;28;20413;-94
2023/09/18 09:52:22;;;;;;;7.22;2.47;;;;;;;;;;5036708;28;20075;-86
2023/09/18 09:54:49;;;;;;;6.15;2.10;;;;;;;;;;5036007;28;20119;-88
2023/09/18 09:57:16;;;;;;;7.43;2.72;;;;;;;;;;5036391;28;20073;-88
2023/09/18 09:59:44;;;;;;;12.88;2.58;;;;;;;;;;5035541;28;20072;-87
2023/09/18 10:02:14;;;;;;;4.82;2.50;;;;;;;;;;5035003;28;20060;-91
2023/09/18 10:04:43;;;;;;;7.70;2.28;;;;;;;;;;5031754;28;20119;-88
2023/09/18 10:07:11;;;;;;;4.03;2.20;;;;;;;;;;5031072;28;20056;-85
2023/09/18 10:09:41;;;;;;;7.65;2.15;;;;;;;;;;5030441;28;20053;-89
2023/09/18 10:12:11;;;;;;;4.40;2.58;;;;;;;;;;5035641;28;20152;-87
2023/09/18 10:14:39;;;;;;;4.60;2.05;;;;;;;;;;5035658;28;20060;-87
2023/09/18 10:17:28;;;;;;;4.65;2.05;;;;;;;;;;5030107;28;20045;-88
2023/09/18 10:20:09;;;;;;;2.80;1.88;;;;;;;;;;5035575;28;20053;-86
2023/09/18 10:22:42;;;;;;;5.60;2.15;;;;;;;;;;5035626;28;20053;-87
2023/09/18 10:25:10;;;;;;;;;;;;;;;;;;5036130;28;20486;-87
2023/09/18 10:27:40;;;;;;;3.58;2.20;;;;;;;;;;5035495;28;19975;-87
2023/09/18 10:30:10;;;;;;;8.07;2.22;;;;;;;;;;5035147;28;20042;-86
2023/09/18 10:32:42;;;;;;;2.58;1.92;;;;;;;;;;5035606;28;20049;-87
2023/09/18 10:35:11;;;;;;;4.68;2.08;;;;;;;;;;5039552;28;20097;-87
2023/09/18 10:37:39;;;;;;;8.18;2.20;;;;;;;;;;5057850;28;20072;-87
2023/09/18 10:40:08;;;;;;;4.75;1.83;;;;;;;;;;5038996;28;20088;-84
2023/09/18 10:42:38;;;;;;;5.63;2.00;;;;;;;;;;5035091;28;20509;-86
2023/09/18 10:45:05;;;;;;;5.78;2.45;;;;;;;;;;5035102;28;20073;-88
2023/09/18 10:47:33;;;;;;;6.93;2.05;;;;;;;;;;5032938;28;20407;-88
2023/09/18 10:50:01;;;;;;;8.25;2.25;;;;;;;;;;5034697;28;20053;-87
2023/09/18 10:52:28;;;;;;;5.22;1.98;;;;;;;;;;5034757;28;20387;-89
2023/09/18 10:54:55;;;;;;;3.85;1.75;;;;;;;;;;5034980;28;20498;-87
2023/09/18 10:57:24;;;;;;;6.43;2.15;;;;;;;;;;5034666;28;20092;-88
2023/09/18 10:59:55;;;;;;;4.43;2.20;;;;;;;;;;5034760;28;20072;-88
2023/09/18 11:02:24;;;;;;;3.95;1.83;;;;;;;;;;5033461;28;20045;-87
2023/09/18 11:04:53;;;;;;;4.93;2.08;;;;;;;;;;5028815;28;20049;-87
2023/09/18 11:07:22;;;;;;;4.68;2.20;;;;;;;;;;5034659;28;20054;-87
2023/09/18 11:09:49;;;;;;;5.65;1.90;;;;;;;;;;5034331;28;20054;-88
2023/09/18 11:12:18;;;;;;;4.60;1.95;;;;;;;;;;5034796;28;20073;-87
2023/09/18 11:14:46;;;;;;;3.03;1.50;;;;;;;;;;5035794;28;20054;-85
2023/09/18 11:17:36;;;;;;;4.50;1.85;;;;;;;;;;5034460;28;20418;-86
2023/09/18 11:20:08;;;;;;;4.00;1.95;;;;;;;;;;5028259;28;20049;-88
2023/09/18 11:22:37;;;;;;;7.13;2.30;;;;;;;;;;5034347;28;20100;-86
2023/09/18 11:25:24;;;;;;;3.03;2.15;;;;;;;;;;5035143;28;20054;-90
2023/09/18 11:27:55;;;;;;;4.65;2.03;;;;;;;;;;5030951;28;20046;-88
2023/09/18 11:30:23;;;;;;;5.47;2.20;;;;;;;;;;5047092;28;20053;-88
2023/09/18 11:32:51;;;;;;;3.97;2.33;;;;;;;;;;5026148;28;20099;-84
2023/09/18 11:35:19;;;;;;;3.92;1.75;;;;;;;;;;5033879;28;20077;-86
2023/09/18 11:37:47;;;;;;;3.17;1.90;;;;;;;;;;5035426;28;20045;-87
2023/09/18 11:40:40;;;;;;;6.30;1.95;;;;;;;;;;5039158;28;20524;-88
2023/09/18 11:43:25;;;;;;;3.10;1.67;;;;;;;;;;5035176;28;20049;-87
2023/09/18 11:45:54;;;;;;;5.95;2.08;;;;;;;;;;5029887;28;20486;-88
2023/09/18 11:48:24;;;;;;;4.03;1.60;;;;;;;;;;5036962;28;20135;-88
2023/09/18 11:50:54;;;;;;;7.88;1.98;;;;;;;;;;5037554;28;20052;-88
2023/09/18 11:53:21;;;;;;;4.57;1.65;;;;;;;;;;5037188;28;20049;-87
2023/09/18 11:55:49;;;;;;;4.78;2.00;;;;;;;;;;5076330;28;20044;-87
2023/09/18 11:58:16;;;;;;;6.38;2.15;;;;;;;;;;5044653;28;20068;-87
2023/09/18 12:00:46;;;;;;;2.67;1.83;;;;;;;;;;5036835;28;20053;-88
2023/09/18 12:03:27;;;;;;;5.82;1.92;;;;;;;;;;5033650;28;20589;-86
2023/09/18 12:05:56;;;;;;;4.05;1.80;;;;;;;;;;5045751;28;20056;-87
2023/09/18 12:08:27;;;;;;;2.53;1.65;;;;;;;;;;5037068;28;20083;-88
2023/09/18 12:10:55;;;;;;;5.28;1.88;;;;;;;;;;5033396;28;20096;-87
2023/09/18 12:13:25;;;;;;;4.40;1.88;;;;;;;;;;5041503;28;20041;-87
2023/09/18 12:16:00;;;;;;;4.03;2.20;;;;;;;;;;5054150;28;20503;-87
2023/09/18 12:18:28;;;;;;;4.57;1.83;;;;;;;;;;5033707;28;20419;-88
2023/09/18 12:20:58;;;;;;;5.65;1.83;;;;;;;;;;5036797;28;20068;-87
2023/09/18 12:23:27;;;;;;;3.38;1.70;;;;;;;;;;5035840;28;20052;-88
2023/09/18 12:26:00;;;;;;;7.38;2.05;;;;;;;;;;5037598;28;20079;-88
2023/09/18 12:28:28;;;;;;;2.47;1.52;;;;;;;;;;5033188;28;20058;-90
2023/09/18 12:30:58;;;;;;;5.57;1.75;;;;;;;;;;5036681;28;20049;-87
2023/09/18 12:33:26;;;;;;;12.27;1.80;;;;;;;;;;5036572;28;20045;-88
2023/09/18 12:35:53;;;;;;;6.20;1.63;;;;;;;;;;5053946;28;20059;-89
2023/09/18 12:38:25;;;;;;;3.20;1.58;;;;;;;;;;5035898;28;20045;-88
2023/09/18 12:40:52;;;;;;;6.90;2.28;;;;;;;;;;5024908;28;20049;-86
2023/09/18 12:43:22;;;;;;;9.20;1.75;;;;;;;;;;5049380;28;20045;-87
2023/09/18 12:45:53;;;;;;;17.48;2.08;;;;;;;;;;5037125;28;20059;-87
2023/09/18 12:48:20;;;;;;;7.03;1.23;;;;;;;;;;5054066;28;20045;-88
2023/09/18 12:50:53;;;;;;;4.72;1.27;;;;;;;;;;5036175;28;20049;-90
2023/09/18 12:53:22;;;;;;;3.67;1.20;;;;;;;;;;5036284;28;20044;-86
2023/09/18 12:55:50;;;;;;;7.95;1.48;;;;;;;;;;5036308;28;20307;-87
2023/09/18 12:58:21;;;;;;;7.10;1.40;;;;;;;;;;5035975;28;20057;-87
2023/09/18 13:00:52;;;;;;;3.58;1.55;;;;;;;;;;5054156;28;20098;-87
2023/09/18 13:03:19;;;;;;;3.75;1.30;;;;;;;;;;5053431;28;20048;-87
2023/09/18 13:05:48;;;;;;;2.17;0.90;;;;;;;;;;5035673;28;20052;-88
2023/09/18 13:08:15;;;;;;;2.05;1.20;;;;;;;;;;5028159;28;20584;-88
2023/09/18 13:10:46;;;;;;;9.70;1.30;;;;;;;;;;5036279;28;20390;-87
2023/09/18 13:13:37;;;;;;;8.55;4.22;;;;;;;;;;5057519;28;20037;-86
2023/09/18 13:16:11;;;;;;;4.45;1.00;;;;;;;;;;5036787;28;20127;-85
2023/09/18 13:18:41;;;;;;;4.38;1.00;;;;;;;;;;5036102;28;20056;-86
2023/09/18 13:21:11;;;;;;;2.78;0.90;;;;;;;;;;5053214;28;20224;-87
2023/09/18 13:23:38;;;;;;;7.03;1.23;;;;;;;;;;5035181;28;20042;-88
2023/09/18 13:26:07;;;;;;;6.75;1.00;;;;;;;;;;5040084;28;20049;-88
2023/09/18 13:28:35;;;;;;;2.92;1.20;;;;;;;;;;5040303;28;20102;-88
2023/09/18 13:31:07;;;;;;;5.65;1.13;;;;;;;;;;5036249;28;20050;-87
2023/09/18 13:33:43;;;;;;;4.45;1.20;;;;;;;;;;5054337;28;20341;-87
2023/09/18 13:36:10;;;;;;;2.28;1.35;;;;;;;;;;5039515;28;20136;-87
2023/09/18 13:38:37;;;;;;;2.50;1.42;;;;;;;;;;5036203;28;20091;-87
2023/09/18 13:41:05;;;;;;;2.85;1.10;;;;;;;;;;5049570;28;20064;-87
2023/09/18 13:43:34;;;;;;;3.03;1.08;;;;;;;;;;5037058;28;20124;-87
2023/09/18 13:46:04;;;;;;;9.32;1.60;;;;;;;;;;5040093;28;20053;-86
2023/09/18 13:48:32;;;;;;;1.85;0.98;;;;;;;;;;5037172;28;20128;-85
2023/09/18 13:51:01;;;;;;;3.22;1.50;;;;;;;;;;5039366;28;20052;-87
2023/09/18 13:53:29;;;;;;;3.85;1.30;;;;;;;;;;5036716;28;20042;-87
2023/09/18 13:55:58;;;;;;;3.22;1.20;;;;;;;;;;5023389;28;20511;-88
2023/09/18 13:58:26;;;;;;;5.25;1.10;;;;;;;;;;5042184;28;20053;-87
2023/09/18 14:00:53;;;;;;;3.78;1.25;;;;;;;;;;5041965;28;20053;-89
2023/09/18 14:03:20;;;;;;;1.80;0.82;;;;;;;;;;5039573;28;20084;-87
2023/09/18 14:05:48;;;;;;;4.95;1.10;;;;;;;;;;5039554;28;20045;-90
2023/09/18 14:08:17;;;;;;;3.05;0.95;;;;;;;;;;5039324;28;20052;-87
2023/09/18 14:10:45;;;;;;;1.40;1.02;;;;;;;;;;5056724;28;20072;-88
2023/09/18 14:13:12;;;;;;;6.25;1.20;;;;;;;;;;5056123;28;20401;-89
2023/09/18 14:15:40;;;;;;;2.78;1.02;;;;;;;;;;5030767;28;20103;-89
2023/09/18 14:18:07;;;;;;;6.10;0.90;;;;;;;;;;5034037;28;20045;-88
2023/09/18 14:20:35;;;;;;;7.88;1.35;;;;;;;;;;5053706;28;20079;-90
2023/09/18 14:23:03;;;;;;;4.10;1.10;;;;;;;;;;5038419;28;20045;-89
2023/09/18 14:25:30;;;;;;;2.70;1.10;;;;;;;;;;5039078;28;20068;-86
2023/09/18 14:27:57;;;;;;;9.75;1.73;;;;;;;;;;5035861;28;20057;-88
2023/09/18 14:30:29;;;;;;;5.85;1.20;;;;;;;;;;5068035;28;20036;-88
2023/09/18 14:32:57;;;;;;;3.75;1.23;;;;;;;;;;5057287;28;20072;-88
2023/09/18 14:35:24;;;;;;;2.88;0.85;;;;;;;;;;5038169;28;20048;-89
2023/09/18 14:37:52;;;;;;;2.67;0.80;;;;;;;;;;5034883;28;20080;-88
2023/09/18 14:40:20;;;;;;;3.22;1.05;;;;;;;;;;5051079;28;20041;-89
2023/09/18 14:42:48;;;;;;;3.72;0.93;;;;;;;;;;5038272;28;20045;-90
2023/09/18 14:45:16;;;;;;;4.55;1.10;;;;;;;;;;5038186;28;20513;-87
2023/09/18 14:47:43;;;;;;;5.28;1.00;;;;;;;;;;5038419;28;20049;-89
2023/09/18 14:50:11;;;;;;;5.72;1.10;;;;;;;;;;5039332;28;20060;-87